Time;durP1;ratioP1;P1;durP2;ratioP2;P2;SDS_P1;SDS_P2;PMS_P1;PMS_P2;Temp;Humidity;BMP_temperature;BMP_pressure;BME280_temperature;BME280_humidity;BME280_pressure;Samples;Min_cycle;Max_cycle;Signal;HPM_P1;HPM_P2
2021/08/15 00:01:23;;;;;;;13.30;9.30;;;;;;;;;;5031713;28;20482;-73
2021/08/15 00:03:50;;;;;;;13.70;8.65;;;;;;;;;;5031888;28;20033;-73
2021/08/15 00:06:16;;;;;;;14.70;9.00;;;;;;;;;;5031826;28;20505;-73
2021/08/15 00:08:43;;;;;;;12.18;9.10;;;;;;;;;;5014052;28;20493;-73
2021/08/15 00:11:09;;;;;;;12.45;9.45;;;;;;;;;;5031432;28;20087;-73
2021/08/15 00:13:35;;;;;;;14.98;9.95;;;;;;;;;;5013920;28;20057;-73
2021/08/15 00:16:01;;;;;;;11.93;9.63;;;;;;;;;;5031420;28;20087;-73
2021/08/15 00:18:27;;;;;;;11.30;9.30;;;;;;;;;;5031834;28;20021;-73
2021/08/15 00:20:53;;;;;;;12.07;9.60;;;;;;;;;;5031212;28;20033;-73
2021/08/15 00:23:19;;;;;;;12.25;9.20;;;;;;;;;;5031620;28;20420;-74
2021/08/15 00:25:45;;;;;;;12.60;8.85;;;;;;;;;;5031585;28;20041;-74
2021/08/15 00:28:11;;;;;;;12.13;9.65;;;;;;;;;;5031521;28;20091;-73
2021/08/15 00:30:37;;;;;;;13.65;11.05;;;;;;;;;;5032158;28;20109;-73
2021/08/15 00:33:03;;;;;;;14.20;9.95;;;;;;;;;;5035580;28;20041;-74
2021/08/15 00:35:29;;;;;;;11.50;9.48;;;;;;;;;;5035565;28;20493;-74
2021/08/15 00:37:55;;;;;;;11.90;9.43;;;;;;;;;;5035445;28;20112;-74
2021/08/15 00:40:21;;;;;;;17.25;10.00;;;;;;;;;;5034931;28;20100;-74
2021/08/15 00:42:47;;;;;;;17.60;10.55;;;;;;;;;;5035358;28;20489;-75
2021/08/15 00:45:13;;;;;;;14.20;10.02;;;;;;;;;;5034912;28;20086;-75
2021/08/15 00:47:39;;;;;;;14.07;10.30;;;;;;;;;;5034390;28;20037;-76
2021/08/15 00:50:05;;;;;;;13.82;9.75;;;;;;;;;;5034878;28;20056;-73
2021/08/15 00:52:31;;;;;;;12.70;9.82;;;;;;;;;;5035254;28;20079;-73
2021/08/15 00:54:59;;;;;;;12.52;9.52;;;;;;;;;;5035060;28;20501;-74
2021/08/15 00:57:26;;;;;;;11.43;9.75;;;;;;;;;;5034949;28;20041;-73
2021/08/15 00:59:52;;;;;;;12.70;10.52;;;;;;;;;;5034616;28;20052;-74
2021/08/15 01:02:18;;;;;;;15.15;10.52;;;;;;;;;;5035009;28;20482;-73
2021/08/15 01:04:44;;;;;;;14.48;11.13;;;;;;;;;;5034930;28;20040;-73
2021/08/15 01:07:10;;;;;;;13.52;11.10;;;;;;;;;;5035014;28;20513;-74
2021/08/15 01:09:36;;;;;;;14.00;10.32;;;;;;;;;;5034380;28;20112;-74
2021/08/15 01:12:03;;;;;;;12.80;10.93;;;;;;;;;;5034842;28;20079;-73
2021/08/15 01:14:29;;;;;;;16.40;11.23;;;;;;;;;;5034617;28;20037;-73
2021/08/15 01:16:55;;;;;;;13.13;10.57;;;;;;;;;;5034659;28;20028;-73
2021/08/15 01:19:28;;;;;;;13.82;10.65;;;;;;;;;;5034200;28;20481;-73
2021/08/15 01:21:54;;;;;;;17.08;11.48;;;;;;;;;;5034834;28;20033;-73
2021/08/15 01:24:20;;;;;;;14.00;10.73;;;;;;;;;;5034637;28;20544;-73
2021/08/15 01:26:46;;;;;;;16.55;11.65;;;;;;;;;;5040127;22;20041;-72
2021/08/15 01:29:12;;;;;;;14.93;10.75;;;;;;;;;;5030044;28;20057;-75
2021/08/15 01:31:38;;;;;;;15.02;10.80;;;;;;;;;;5032756;28;20038;-75
2021/08/15 01:34:04;;;;;;;13.00;10.68;;;;;;;;;;5015234;28;20025;-75
2021/08/15 01:36:30;;;;;;;16.30;11.00;;;;;;;;;;5032913;28;20029;-76
2021/08/15 01:38:57;;;;;;;14.77;10.88;;;;;;;;;;5032428;28;20022;-75
2021/08/15 01:41:23;;;;;;;16.48;10.35;;;;;;;;;;5032763;28;20021;-74
2021/08/15 01:44:00;;;;;;;12.52;10.63;;;;;;;;;;5030052;28;20080;-74
2021/08/15 01:46:30;;;;;;;11.30;10.10;;;;;;;;;;5012711;28;20076;-74
2021/08/15 01:48:56;;;;;;;12.48;10.38;;;;;;;;;;4994815;28;20037;-74
2021/08/15 01:51:22;;;;;;;16.20;10.07;;;;;;;;;;5012584;28;20025;-74
2021/08/15 01:53:50;;;;;;;13.10;10.13;;;;;;;;;;5012652;28;20022;-75
2021/08/15 01:56:16;;;;;;;10.95;9.35;;;;;;;;;;5012853;28;20022;-74
2021/08/15 01:58:42;;;;;;;13.25;10.85;;;;;;;;;;5012675;28;20028;-74
2021/08/15 02:01:08;;;;;;;12.20;9.77;;;;;;;;;;4994565;28;20029;-74
2021/08/15 02:03:36;;;;;;;11.90;8.93;;;;;;;;;;5012854;28;20037;-74
2021/08/15 02:06:02;;;;;;;13.68;11.32;;;;;;;;;;4995537;28;20517;-75
2021/08/15 02:08:28;;;;;;;13.50;10.13;;;;;;;;;;5012587;28;20030;-74
2021/08/15 02:10:54;;;;;;;10.77;8.30;;;;;;;;;;5012055;28;20080;-74
2021/08/15 02:13:20;;;;;;;12.30;8.85;;;;;;;;;;5012621;28;20502;-74
2021/08/15 02:15:46;;;;;;;12.90;8.77;;;;;;;;;;4994907;28;20446;-74
2021/08/15 02:18:13;;;;;;;11.48;8.13;;;;;;;;;;5012488;28;20018;-75
2021/08/15 02:20:39;;;;;;;11.73;8.32;;;;;;;;;;5011936;28;20018;-74
2021/08/15 02:23:05;;;;;;;12.30;9.82;;;;;;;;;;5012503;28;20034;-74
2021/08/15 02:25:31;;;;;;;14.15;9.68;;;;;;;;;;5012561;28;20109;-74
2021/08/15 02:27:57;;;;;;;13.88;9.30;;;;;;;;;;4975772;28;1075118;-75
2021/08/15 02:30:24;;;;;;;13.80;9.88;;;;;;;;;;5012538;28;20105;-74
2021/08/15 02:32:51;;;;;;;12.27;9.90;;;;;;;;;;5013238;28;20069;-76
2021/08/15 02:35:17;;;;;;;12.43;10.57;;;;;;;;;;5013375;28;20104;-74
2021/08/15 02:37:45;;;;;;;13.23;10.65;;;;;;;;;;5013143;28;20026;-75
2021/08/15 02:40:12;;;;;;;16.90;11.45;;;;;;;;;;5012857;28;20509;-74
2021/08/15 02:42:39;;;;;;;13.30;10.82;;;;;;;;;;5013485;28;20030;-74
2021/08/15 02:45:06;;;;;;;15.60;10.55;;;;;;;;;;5012971;28;20033;-75
2021/08/15 02:47:32;;;;;;;13.25;10.43;;;;;;;;;;4995383;28;20479;-75
2021/08/15 02:49:58;;;;;;;14.07;11.30;;;;;;;;;;5012397;28;20029;-75
2021/08/15 02:52:24;;;;;;;13.18;11.15;;;;;;;;;;5012888;28;20034;-73
2021/08/15 02:54:50;;;;;;;16.13;10.95;;;;;;;;;;5012665;28;20108;-73
2021/08/15 02:57:16;;;;;;;14.30;11.02;;;;;;;;;;5011660;28;20101;-73
2021/08/15 02:59:42;;;;;;;16.42;12.07;;;;;;;;;;4994738;28;20436;-73
2021/08/15 03:02:09;;;;;;;13.05;11.40;;;;;;;;;;5012695;28;20100;-73
2021/08/15 03:04:35;;;;;;;14.45;11.02;;;;;;;;;;5012799;28;20033;-74
2021/08/15 03:07:01;;;;;;;12.57;10.27;;;;;;;;;;5012660;28;20463;-74
2021/08/15 03:09:27;;;;;;;14.25;11.18;;;;;;;;;;5011971;28;20108;-73
2021/08/15 03:11:53;;;;;;;11.60;10.23;;;;;;;;;;5012522;28;20113;-73
2021/08/15 03:14:19;;;;;;;12.43;10.25;;;;;;;;;;5012497;28;20148;-73
2021/08/15 03:16:45;;;;;;;15.02;10.02;;;;;;;;;;5012384;28;20037;-75
2021/08/15 03:19:11;;;;;;;13.23;11.00;;;;;;;;;;5011903;28;20034;-75
2021/08/15 03:21:39;;;;;;;14.73;10.90;;;;;;;;;;5012654;28;20032;-74
2021/08/15 03:24:05;;;;;;;14.43;10.95;;;;;;;;;;5012450;28;20026;-73
2021/08/15 03:26:32;;;;;;;16.38;10.82;;;;;;;;;;5012356;28;20038;-74
2021/08/15 03:28:58;;;;;;;13.40;10.77;;;;;;;;;;5011861;28;20026;-75
2021/08/15 03:31:24;;;;;;;13.75;11.55;;;;;;;;;;4994489;28;20033;-75
2021/08/15 03:33:50;;;;;;;11.32;10.18;;;;;;;;;;5012165;28;20021;-74
2021/08/15 03:36:17;;;;;;;15.98;10.75;;;;;;;;;;5012364;28;20034;-74
2021/08/15 03:38:43;;;;;;;14.40;11.65;;;;;;;;;;5012186;28;20026;-74
2021/08/15 03:41:09;;;;;;;17.08;12.55;;;;;;;;;;5011800;28;20084;-74
2021/08/15 03:43:35;;;;;;;18.90;12.95;;;;;;;;;;5012083;28;20030;-74
2021/08/15 03:46:01;;;;;;;16.98;13.25;;;;;;;;;;5011859;28;20057;-74
2021/08/15 03:48:27;;;;;;;18.38;12.50;;;;;;;;;;5012026;28;20104;-75
2021/08/15 03:50:53;;;;;;;14.52;12.00;;;;;;;;;;5011393;28;20025;-73
2021/08/15 03:53:19;;;;;;;14.20;12.18;;;;;;;;;;5012044;28;20030;-74
2021/08/15 03:55:45;;;;;;;17.80;12.48;;;;;;;;;;5011883;28;20041;-74
2021/08/15 03:58:11;;;;;;;21.00;13.23;;;;;;;;;;5012025;28;20018;-73
2021/08/15 04:00:40;;;;;;;17.20;13.25;;;;;;;;;;5011103;28;20828;-74
2021/08/15 04:03:16;;;;;;;18.40;13.68;;;;;;;;;;5011997;28;20061;-74
2021/08/15 04:05:42;;;;;;;18.90;13.07;;;;;;;;;;5011004;28;20385;-74
2021/08/15 04:08:08;;;;;;;19.35;12.90;;;;;;;;;;5011901;28;20022;-73
2021/08/15 04:10:35;;;;;;;15.75;12.27;;;;;;;;;;5011304;28;20072;-73
2021/08/15 04:13:01;;;;;;;15.25;12.23;;;;;;;;;;5006911;28;20018;-75
2021/08/15 04:15:27;;;;;;;15.70;12.32;;;;;;;;;;5009736;28;20026;-75
2021/08/15 04:17:53;;;;;;;14.45;12.75;;;;;;;;;;5011821;28;20026;-74
2021/08/15 04:20:20;;;;;;;18.20;13.32;;;;;;;;;;5010990;28;20018;-74
2021/08/15 04:22:46;;;;;;;16.10;12.77;;;;;;;;;;5011739;28;20026;-74
2021/08/15 04:25:12;;;;;;;20.85;11.88;;;;;;;;;;5011715;28;20058;-73
2021/08/15 04:27:38;;;;;;;12.45;11.15;;;;;;;;;;5011521;28;20034;-74
2021/08/15 04:30:05;;;;;;;12.52;10.35;;;;;;;;;;5010925;28;20041;-74
2021/08/15 04:32:31;;;;;;;12.93;11.23;;;;;;;;;;5011307;28;20022;-74
2021/08/15 04:34:57;;;;;;;20.23;12.02;;;;;;;;;;4994064;28;20053;-74
2021/08/15 04:37:23;;;;;;;14.82;11.68;;;;;;;;;;4993885;28;20034;-74
2021/08/15 04:39:49;;;;;;;15.85;11.10;;;;;;;;;;5011022;28;20165;-74
2021/08/15 04:42:15;;;;;;;13.98;10.98;;;;;;;;;;5011393;28;20030;-73
2021/08/15 04:44:41;;;;;;;15.30;10.77;;;;;;;;;;4984268;28;20034;-73
2021/08/15 04:47:07;;;;;;;13.90;10.80;;;;;;;;;;4991587;28;20053;-74
2021/08/15 04:49:33;;;;;;;12.85;10.02;;;;;;;;;;4991349;28;20022;-74
2021/08/15 04:51:59;;;;;;;14.07;10.13;;;;;;;;;;4974530;28;20085;-73
2021/08/15 04:54:28;;;;;;;15.60;10.23;;;;;;;;;;4974370;28;20027;-73
2021/08/15 04:56:54;;;;;;;13.00;10.50;;;;;;;;;;4991877;28;20492;-73
2021/08/15 04:59:20;;;;;;;10.57;9.48;;;;;;;;;;4973776;28;20022;-75
2021/08/15 05:01:46;;;;;;;13.23;10.60;;;;;;;;;;4991616;28;20034;-74
2021/08/15 05:04:12;;;;;;;13.75;10.57;;;;;;;;;;4991759;28;20100;-74
2021/08/15 05:06:38;;;;;;;12.82;9.65;;;;;;;;;;4991680;28;20117;-74
2021/08/15 05:09:04;;;;;;;11.80;9.88;;;;;;;;;;4991220;28;20038;-73
2021/08/15 05:11:31;;;;;;;15.57;10.45;;;;;;;;;;4991772;28;20030;-73
2021/08/15 05:13:57;;;;;;;15.55;9.50;;;;;;;;;;4991689;28;20023;-73
2021/08/15 05:16:23;;;;;;;12.57;8.85;;;;;;;;;;4992427;28;20105;-73
2021/08/15 05:18:49;;;;;;;12.05;9.45;;;;;;;;;;4994825;28;20482;-75
2021/08/15 05:21:15;;;;;;;11.23;9.10;;;;;;;;;;4994941;28;20039;-74
2021/08/15 05:23:41;;;;;;;12.52;9.23;;;;;;;;;;4995387;28;20534;-74
2021/08/15 05:26:07;;;;;;;12.20;9.07;;;;;;;;;;4995037;28;20026;-73
2021/08/15 05:28:33;;;;;;;10.95;8.73;;;;;;;;;;4994845;28;20499;-73
2021/08/15 05:30:59;;;;;;;13.68;8.65;;;;;;;;;;4994324;28;20041;-73
2021/08/15 05:33:25;;;;;;;13.35;9.23;;;;;;;;;;4977528;28;20029;-75
2021/08/15 05:35:51;;;;;;;11.23;8.57;;;;;;;;;;4994969;28;20109;-74
2021/08/15 05:38:18;;;;;;;11.82;8.65;;;;;;;;;;4977336;28;20538;-75
2021/08/15 05:40:44;;;;;;;10.88;8.32;;;;;;;;;;4994328;28;20368;-75
2021/08/15 05:43:10;;;;;;;12.23;9.15;;;;;;;;;;4977517;28;20435;-74
2021/08/15 05:45:37;;;;;;;9.50;7.35;;;;;;;;;;5011940;28;20068;-74
2021/08/15 05:48:03;;;;;;;10.90;7.80;;;;;;;;;;5014285;28;20025;-74
2021/08/15 05:50:29;;;;;;;12.02;7.65;;;;;;;;;;5013770;28;20026;-73
2021/08/15 05:52:55;;;;;;;11.57;7.28;;;;;;;;;;5013027;28;20038;-73
2021/08/15 05:55:21;;;;;;;9.43;7.15;;;;;;;;;;4996561;28;20100;-73
2021/08/15 05:57:47;;;;;;;10.15;7.63;;;;;;;;;;5014104;28;20030;-73
2021/08/15 06:00:14;;;;;;;10.68;7.95;;;;;;;;;;5013438;28;20446;-73
2021/08/15 06:02:41;;;;;;;12.30;8.57;;;;;;;;;;5013773;28;20029;-74
2021/08/15 06:05:07;;;;;;;11.40;7.50;;;;;;;;;;4996798;28;20105;-74
2021/08/15 06:07:33;;;;;;;11.55;8.40;;;;;;;;;;4996257;28;20030;-73
2021/08/15 06:09:59;;;;;;;10.00;7.30;;;;;;;;;;5013272;28;20140;-74
2021/08/15 06:12:25;;;;;;;12.90;8.00;;;;;;;;;;4996293;28;20037;-74
2021/08/15 06:14:52;;;;;;;8.95;7.45;;;;;;;;;;5013740;28;20124;-75
2021/08/15 06:17:18;;;;;;;14.43;8.45;;;;;;;;;;5013436;28;20022;-75
2021/08/15 06:19:44;;;;;;;11.57;7.30;;;;;;;;;;4995784;28;20041;-75
2021/08/15 06:22:10;;;;;;;11.10;7.05;;;;;;;;;;5013567;28;20040;-75
2021/08/15 06:24:36;;;;;;;15.80;7.63;;;;;;;;;;4995894;28;20025;-76
2021/08/15 06:27:03;;;;;;;12.57;7.95;;;;;;;;;;5013480;28;20121;-75
2021/08/15 06:29:29;;;;;;;15.05;8.10;;;;;;;;;;5012156;28;20030;-75
2021/08/15 06:31:55;;;;;;;12.52;7.82;;;;;;;;;;4995619;28;20033;-75
2021/08/15 06:34:21;;;;;;;13.13;7.75;;;;;;;;;;5013485;28;20442;-75
2021/08/15 06:36:47;;;;;;;9.38;7.13;;;;;;;;;;4996031;28;20072;-77
2021/08/15 06:39:13;;;;;;;15.93;7.53;;;;;;;;;;4995148;28;20029;-76
2021/08/15 06:41:40;;;;;;;9.60;7.35;;;;;;;;;;5013638;28;20025;-76
2021/08/15 06:44:07;;;;;;;11.88;6.97;;;;;;;;;;5013228;28;20022;-75
2021/08/15 06:46:33;;;;;;;10.77;7.05;;;;;;;;;;5012943;28;20034;-75
2021/08/15 06:48:59;;;;;;;9.25;7.15;;;;;;;;;;5012612;28;20096;-75
2021/08/15 06:51:25;;;;;;;10.85;7.45;;;;;;;;;;5008455;28;20117;-74
2021/08/15 06:53:52;;;;;;;10.70;7.10;;;;;;;;;;5011678;28;20088;-75
2021/08/15 06:56:18;;;;;;;12.93;7.03;;;;;;;;;;5012938;28;20026;-76
2021/08/15 06:58:44;;;;;;;9.30;6.18;;;;;;;;;;5012970;28;20109;-76
2021/08/15 07:01:10;;;;;;;9.40;6.68;;;;;;;;;;5012090;28;20180;-75
2021/08/15 07:03:36;;;;;;;10.02;6.05;;;;;;;;;;5012867;28;20530;-76
2021/08/15 07:06:02;;;;;;;12.55;6.28;;;;;;;;;;4995255;28;20402;-75
2021/08/15 07:08:28;;;;;;;11.07;7.05;;;;;;;;;;5012686;28;20100;-76
2021/08/15 07:10:54;;;;;;;9.25;5.72;;;;;;;;;;4995323;28;20114;-79
2021/08/15 07:13:22;;;;;;;11.05;6.28;;;;;;;;;;5012898;28;20084;-77
2021/08/15 07:15:49;;;;;;;10.60;5.63;;;;;;;;;;5012724;28;20654;-77
2021/08/15 07:18:16;;;;;;;9.98;6.22;;;;;;;;;;5012291;28;20406;-76
2021/08/15 07:20:42;;;;;;;7.50;5.38;;;;;;;;;;5010152;28;20073;-76
2021/08/15 07:23:08;;;;;;;9.73;5.85;;;;;;;;;;5012567;28;20026;-76
2021/08/15 07:25:34;;;;;;;9.30;5.90;;;;;;;;;;5012673;28;20041;-76
2021/08/15 07:28:01;;;;;;;12.43;5.45;;;;;;;;;;5012292;28;20033;-76
2021/08/15 07:30:27;;;;;;;9.93;5.68;;;;;;;;;;4994374;28;20030;-77
2021/08/15 07:32:58;;;;;;;9.05;5.90;;;;;;;;;;5009936;28;20442;-76
2021/08/15 07:35:25;;;;;;;8.38;5.70;;;;;;;;;;5012479;28;20096;-76
2021/08/15 07:37:51;;;;;;;9.85;5.93;;;;;;;;;;5012314;28;20061;-76
2021/08/15 07:40:17;;;;;;;10.25;5.75;;;;;;;;;;5011663;28;20061;-76
2021/08/15 07:42:43;;;;;;;8.82;5.38;;;;;;;;;;5012869;28;20037;-78
2021/08/15 07:45:09;;;;;;;9.48;5.85;;;;;;;;;;5012291;28;20033;-78
2021/08/15 07:47:36;;;;;;;7.60;5.57;;;;;;;;;;5011878;28;20037;-78
2021/08/15 07:50:03;;;;;;;9.88;5.65;;;;;;;;;;4993887;28;20018;-78
2021/08/15 07:52:28;;;;;;;8.50;5.63;;;;;;;;;;4994169;28;20026;-77
2021/08/15 07:54:54;;;;;;;7.80;5.20;;;;;;;;;;5012283;28;20029;-77
2021/08/15 07:57:21;;;;;;;7.43;5.75;;;;;;;;;;5012246;28;20018;-77
2021/08/15 07:59:47;;;;;;;8.38;5.78;;;;;;;;;;5011632;28;20437;-77
2021/08/15 08:02:13;;;;;;;7.75;5.65;;;;;;;;;;5012300;28;20108;-76
2021/08/15 08:04:39;;;;;;;8.82;5.20;;;;;;;;;;4994489;28;20072;-75
2021/08/15 08:07:06;;;;;;;6.70;5.75;;;;;;;;;;5011061;28;20044;-77
2021/08/15 08:09:32;;;;;;;10.13;5.60;;;;;;;;;;5011336;28;20026;-76
2021/08/15 08:11:58;;;;;;;6.78;5.80;;;;;;;;;;5012101;28;20025;-77
2021/08/15 08:14:25;;;;;;;8.32;5.45;;;;;;;;;;5004592;28;20098;-77
2021/08/15 08:16:52;;;;;;;7.25;5.72;;;;;;;;;;4992072;28;20483;-76
2021/08/15 08:19:18;;;;;;;10.75;5.32;;;;;;;;;;4991971;28;20019;-76
2021/08/15 08:21:44;;;;;;;7.60;5.80;;;;;;;;;;4975073;28;20027;-76
2021/08/15 08:24:10;;;;;;;9.63;6.10;;;;;;;;;;4992320;28;20108;-76
2021/08/15 08:26:36;;;;;;;7.95;5.63;;;;;;;;;;4992132;28;20030;-76
2021/08/15 08:29:02;;;;;;;7.22;5.63;;;;;;;;;;4991835;28;20029;-76
2021/08/15 08:31:28;;;;;;;7.55;5.28;;;;;;;;;;4992069;28;20498;-75
2021/08/15 08:33:54;;;;;;;7.68;5.80;;;;;;;;;;4992301;28;20031;-77
2021/08/15 08:36:21;;;;;;;9.07;6.65;;;;;;;;;;4992132;28;20026;-77
2021/08/15 08:38:47;;;;;;;8.63;6.22;;;;;;;;;;4992048;28;20101;-76
2021/08/15 08:41:15;;;;;;;7.40;5.75;;;;;;;;;;4991925;28;20484;-75
2021/08/15 08:43:41;;;;;;;9.30;5.85;;;;;;;;;;4993693;28;20153;-76
2021/08/15 08:46:09;;;;;;;8.00;5.50;;;;;;;;;;5011656;28;20058;-78
2021/08/15 08:48:35;;;;;;;6.22;5.05;;;;;;;;;;5011496;28;20092;-79
2021/08/15 08:51:02;;;;;;;8.60;5.85;;;;;;;;;;4994113;28;20037;-78
2021/08/15 08:53:28;;;;;;;8.13;5.25;;;;;;;;;;5015503;28;20025;-77
2021/08/15 08:55:54;;;;;;;10.05;5.60;;;;;;;;;;5015539;28;20026;-76
2021/08/15 08:58:20;;;;;;;9.95;5.88;;;;;;;;;;5015373;28;20453;-77
2021/08/15 09:00:49;;;;;;;7.80;5.10;;;;;;;;;;5014808;28;20026;-77
2021/08/15 09:03:15;;;;;;;7.10;5.75;;;;;;;;;;4997608;28;20113;-77
2021/08/15 09:05:42;;;;;;;10.77;5.65;;;;;;;;;;5015361;28;20021;-77
2021/08/15 09:08:08;;;;;;;9.77;5.85;;;;;;;;;;5015221;28;20037;-79
2021/08/15 09:10:39;;;;;;;9.70;5.75;;;;;;;;;;5014899;28;20026;-78
2021/08/15 09:13:06;;;;;;;7.50;5.72;;;;;;;;;;5015033;28;20033;-77
2021/08/15 09:15:33;;;;;;;9.02;5.85;;;;;;;;;;5014965;28;20061;-78
2021/08/15 09:17:59;;;;;;;11.60;5.90;;;;;;;;;;4997466;28;20116;-77
2021/08/15 09:20:36;;;;;;;9.00;5.80;;;20.20;99.90;;;;;;5014523;28;20030;-78
2021/08/15 09:23:17;;;;;;;10.50;5.43;;;;;;;;;;5015119;28;20021;-77
2021/08/15 09:25:43;;;;;;;9.65;5.53;;;;;;;;;;5015013;28;20026;-77
2021/08/15 09:28:09;;;;;;;8.73;5.05;;;;;;;;;;4980992;28;20052;-77
2021/08/15 09:30:35;;;;;;;9.90;5.47;;;;;;;;;;5014351;28;20030;-76
2021/08/15 09:33:01;;;;;;;6.75;5.63;;;;;;;;;;4996792;28;20376;-77
2021/08/15 09:35:36;;;;;;;9.18;5.63;;;27.60;99.90;;;;;;4997195;28;20022;-77
2021/08/15 09:38:13;;;;;;;11.43;6.13;;;28.70;99.90;;;;;;5014684;28;20018;-78
2021/08/15 09:40:54;;;;;;;10.45;5.88;;;28.80;99.90;;;;;;5014119;28;20026;-77
2021/08/15 09:43:19;;;;;;;6.15;5.40;;;29.00;99.90;;;;;;5014696;28;20022;-78
2021/08/15 09:45:49;;;;;;;7.63;5.60;;;29.80;99.90;;;;;;5014472;28;20036;-78
2021/08/15 09:48:19;;;;;;;8.52;5.18;;;30.70;98.60;;;;;;5014338;28;20516;-80
2021/08/15 09:51:01;;;;;;;9.23;5.40;;;31.20;97.30;;;;;;5014022;28;20018;-79
2021/08/15 09:53:27;;;;;;;7.50;5.63;;;31.90;94.20;;;;;;5014551;28;20034;-77
2021/08/15 09:55:52;;;;;;;8.07;5.13;;;32.30;93.00;;;;;;4997001;28;20037;-77
2021/08/15 09:58:18;;;;;;;7.10;4.82;;;32.10;91.80;;;;;;5014166;28;20036;-77
2021/08/15 10:00:44;;;;;;;6.15;4.88;;;32.70;90.50;;;;;;5013853;28;20044;-77
2021/08/15 10:03:10;;;;;;;6.65;4.82;;;;;;;;;;5012894;28;20022;-77
2021/08/15 10:05:37;;;;;;;5.72;4.53;;;33.20;88.60;;;;;;5014160;28;20033;-77
2021/08/15 10:08:03;;;;;;;6.90;5.05;;;34.40;83.00;;;;;;5014216;28;20033;-77
2021/08/15 10:10:28;;;;;;;6.22;4.90;;;35.00;78.30;;;;;;5013724;28;20026;-78
2021/08/15 10:12:55;;;;;;;7.57;4.88;;;34.90;76.70;;;;;;5014075;28;20030;-77
2021/08/15 10:15:21;;;;;;;8.73;4.80;;;34.90;75.30;;;;;;5014105;28;20355;-77
2021/08/15 10:17:50;;;;;;;6.28;4.65;;;35.00;74.00;;;;;;5013894;28;20037;-78
2021/08/15 10:20:34;;;;;;;7.72;5.00;;;;;;;;;;4995914;28;20030;-79
2021/08/15 10:23:13;;;;;;;6.28;4.97;;;;;;;;;;5014053;28;20033;-79
2021/08/15 10:25:42;;;;;;;6.47;4.88;;;;;;;;;;5014258;28;20050;-77
2021/08/15 10:28:08;;;;;;;8.13;4.68;;;;;;;;;;5013934;28;20442;-77
2021/08/15 10:30:34;;;;;;;6.20;4.80;;;;;;;;;;5013284;28;20395;-78
2021/08/15 10:33:03;;;;;;;7.22;5.30;;;;;;;;;;5013496;28;20022;-79
2021/08/15 10:35:33;;;;;;;7.05;4.85;;;;;;;;;;5013904;28;20026;-78
2021/08/15 10:38:07;;;;;;;8.23;4.43;;;;;;;;;;5013946;28;20022;-77
2021/08/15 10:40:41;;;;;;;5.25;4.68;;;;;;;;;;5013309;28;20457;-79
2021/08/15 10:43:14;;;;;;;8.30;4.50;;;;;;;;;;5013634;28;20492;-78
2021/08/15 10:45:41;;;;;;;5.60;4.45;;;34.90;74.30;;;;;;4996296;28;20057;-77
2021/08/15 10:48:09;;;;;;;8.90;5.43;;;36.10;69.20;;;;;;4976344;28;20119;-77
2021/08/15 10:50:45;;;;;;;9.35;4.63;;;36.30;69.60;;;;;;4993431;28;20029;-79
2021/08/15 10:53:29;;;;;;;8.35;4.95;;;36.80;68.30;;;;;;4994127;28;20026;-78
2021/08/15 10:56:02;;;;;;;10.35;4.72;;;37.40;65.70;;;;;;4993742;28;20096;-78
2021/08/15 10:58:47;;;;;;;6.53;4.55;;;37.20;64.40;;;;;;4993800;28;20054;-78
2021/08/15 11:01:18;;;;;;;7.60;4.38;;;37.30;64.00;;;;;;4993699;28;20083;-77
2021/08/15 11:03:47;;;;;;;7.53;5.15;;;37.20;64.30;;;;;;4975909;28;20031;-78
2021/08/15 11:06:34;;;;;;;7.85;3.97;;;36.70;63.30;;;;;;4993704;28;20097;-78
2021/08/15 11:09:05;;;;;;;6.68;4.43;;;36.90;65.30;;;;;;4992935;28;20022;-78
2021/08/15 11:11:36;;;;;;;7.30;4.57;;;37.10;64.80;;;;;;4993460;28;20023;-78
2021/08/15 11:14:24;;;;;;;5.63;4.57;;;37.10;63.90;;;;;;4997392;28;20482;-79
2021/08/15 11:16:55;;;;;;;11.52;4.22;;;36.70;64.30;;;;;;5012706;28;20026;-81
2021/08/15 11:19:21;;;;;;;5.70;4.13;;;36.60;64.00;;;;;;5012451;28;20030;-78
2021/08/15 11:22:21;;;;;;;8.38;4.55;;;37.20;64.30;;;;;;5012880;28;20022;-78
2021/08/15 11:25:05;;;;;;;8.23;4.43;;;38.00;62.10;;;;;;4999372;28;20514;-78
2021/08/15 11:27:34;;;;;;;8.35;4.25;;;38.60;61.00;;;;;;4995145;28;20125;-78
2021/08/15 11:30:09;;;;;;;7.15;4.15;;;37.80;60.60;;;;;;5012319;28;20036;-78
2021/08/15 11:32:34;;;;;;;5.55;4.20;;;38.10;61.90;;;;;;5012696;28;20050;-79
2021/08/15 11:35:05;;;;;;;6.45;4.80;;;37.70;61.50;;;;;;5012517;28;20423;-80
2021/08/15 11:37:34;;;;;;;8.02;5.30;;;37.50;62.00;;;;;;4995209;28;20022;-77
2021/08/15 11:40:24;;;;;;;9.43;4.25;;;38.20;60.60;;;;;;5012377;28;20060;-77
2021/08/15 11:42:58;;;;;;;6.70;4.57;;;38.20;61.10;;;;;;5012629;28;20768;-75
2021/08/15 11:45:54;;;;;;;8.43;4.20;;;38.80;58.60;;;;;;4997188;28;20069;-75
2021/08/15 11:48:22;;;;;;;6.60;3.95;;;39.20;60.30;;;;;;4991953;28;20034;-76
2021/08/15 11:50:51;;;;;;;5.82;4.25;;;39.80;57.70;;;;;;4975160;28;20566;-76
2021/08/15 11:53:25;;;;;;;6.10;4.18;;;38.90;58.00;;;;;;4992595;28;20034;-77
2021/08/15 11:55:53;;;;;;;7.57;4.22;;;38.90;58.20;;;;;;4992490;28;20034;-81
2021/08/15 11:58:19;;;;;;;7.60;4.28;;;38.70;58.20;;;;;;4992670;28;20545;-78
2021/08/15 12:00:46;;;;;;;7.72;4.53;;;39.20;58.30;;;;;;4992146;28;20034;-78
2021/08/15 12:03:11;;;;;;;6.95;4.50;;;39.10;58.30;;;;;;4975014;28;20032;-76
2021/08/15 12:05:57;;;;;;;7.63;4.65;;;38.20;58.20;;;;;;4992659;28;20022;-76
2021/08/15 12:08:36;;;;;;;8.60;4.30;;;38.30;57.90;;;;;;4975188;28;20380;-76
2021/08/15 12:11:20;;;;;;;8.23;5.03;;;38.80;58.30;;;;;;4992079;28;20097;-76
2021/08/15 12:13:45;;;;;;;9.32;4.90;;;38.80;58.70;;;;;;4994764;28;20073;-78
2021/08/15 12:16:12;;;;;;;6.97;4.43;;;38.80;59.20;;;;;;5012020;28;20018;-75
2021/08/15 12:18:47;;;;;;;7.25;3.85;;;38.90;58.10;;;;;;5011784;28;20162;-75
2021/08/15 12:21:42;;;;;;;7.88;4.32;;;38.70;57.60;;;;;;5011847;28;20037;-76
2021/08/15 12:24:15;;;;;;;5.60;4.30;;;38.30;57.50;;;;;;5011959;28;20049;-76
2021/08/15 12:26:40;;;;;;;6.22;4.18;;;37.70;58.80;;;;;;5013349;28;20037;-75
2021/08/15 12:29:21;;;;;;;8.15;4.80;;;37.30;58.70;;;;;;5015416;28;20025;-76
2021/08/15 12:32:08;;;;;;;7.63;5.20;;;37.10;60.10;;;;;;5015987;28;20049;-75
2021/08/15 12:34:38;;;;;;;6.00;4.75;;;35.50;61.00;;;;;;5015851;28;20022;-76
2021/08/15 12:37:12;;;;;;;6.07;4.68;;;35.80;62.50;;;;;;5015961;28;20549;-76
2021/08/15 12:39:46;;;;;;;10.45;5.13;;;36.60;61.90;;;;;;5015192;28;20026;-76
2021/08/15 12:42:22;;;;;;;7.45;4.97;;;37.10;60.50;;;;;;5015911;28;20557;-76
2021/08/15 12:44:54;;;;;;;6.78;4.38;;;36.90;60.10;;;;;;5005177;28;20084;-77
2021/08/15 12:47:45;;;;;;;6.00;4.55;;;37.40;61.40;;;;;;4995759;28;20038;-77
2021/08/15 12:50:12;;;;;;;6.63;4.53;;;37.60;59.90;;;;;;4995490;28;20070;-77
2021/08/15 12:52:46;;;;;;;11.10;4.65;;;38.80;58.60;;;;;;4995780;28;20082;-77
2021/08/15 12:55:12;;;;;;;7.03;4.88;;;39.40;59.10;;;;;;4995961;28;20072;-76
2021/08/15 12:57:40;;;;;;;6.40;4.63;;;39.50;57.00;;;;;;4995780;28;20438;-77
2021/08/15 13:00:07;;;;;;;8.52;4.90;;;39.90;55.80;;;;;;4995167;28;20026;-78
2021/08/15 13:02:35;;;;;;;8.35;4.50;;;40.40;55.50;;;;;;4995393;28;20053;-78
2021/08/15 13:05:02;;;;;;;7.13;4.63;;;40.00;55.90;;;;;;4995782;28;20026;-77
2021/08/15 13:07:28;;;;;;;6.30;4.05;;;40.50;56.30;;;;;;4995634;28;20050;-78
2021/08/15 13:09:55;;;;;;;7.13;4.60;;;40.90;55.60;;;;;;4995195;28;20030;-77
2021/08/15 13:12:22;;;;;;;8.35;4.22;;;41.10;54.70;;;;;;4995591;28;20030;-77
2021/08/15 13:14:47;;;;;;;7.65;5.05;;;41.30;55.10;;;;;;4988661;28;20030;-77
2021/08/15 13:17:13;;;;;;;7.53;4.63;;;41.70;53.30;;;;;;5014749;28;20495;-77
2021/08/15 13:19:43;;;;;;;6.93;4.43;;;41.40;53.20;;;;;;5014620;28;20483;-77
2021/08/15 13:22:09;;;;;;;10.32;4.47;;;41.40;54.70;;;;;;4997713;28;20394;-77
2021/08/15 13:24:36;;;;;;;6.03;4.13;;;41.80;53.80;;;;;;4997322;28;20040;-76
2021/08/15 13:27:03;;;;;;;7.65;4.00;;;42.70;52.90;;;;;;5014866;28;20042;-78
2021/08/15 13:29:29;;;;;;;10.30;4.50;;;43.30;53.00;;;;;;4997314;28;20446;-77
2021/08/15 13:31:55;;;;;;;7.68;4.57;;;43.80;50.80;;;;;;4997133;28;20141;-77
2021/08/15 13:34:21;;;;;;;5.57;4.47;;;43.90;50.70;;;;;;5028683;22;20049;-76
2021/08/15 13:36:47;;;;;;;5.50;4.35;;;43.50;51.10;;;;;;4997047;28;20040;-76
2021/08/15 13:39:12;;;;;;;5.47;4.75;;;43.30;51.20;;;;;;4997372;28;20398;-77
2021/08/15 13:41:38;;;;;;;9.02;4.88;;;43.60;50.90;;;;;;5014872;28;20109;-77
2021/08/15 13:44:04;;;;;;;7.88;4.80;;;44.30;50.00;;;;;;5014586;28;20030;-76
2021/08/15 13:46:31;;;;;;;6.28;4.53;;;44.20;49.30;;;;;;5014475;28;20030;-76
2021/08/15 13:48:56;;;;;;;9.52;4.30;;;45.00;48.80;;;;;;5013923;28;20393;-77
2021/08/15 13:51:22;;;;;;;8.88;4.28;;;45.30;49.40;;;;;;4996865;28;20038;-76
2021/08/15 13:53:48;;;;;;;6.18;4.20;;;45.90;48.70;;;;;;5014429;28;20034;-76
2021/08/15 13:56:13;;;;;;;6.53;4.15;;;45.90;48.00;;;;;;5014645;28;20092;-77
2021/08/15 13:58:39;;;;;;;7.32;4.20;;;45.00;48.70;;;;;;5014227;28;20030;-76
2021/08/15 14:01:04;;;;;;;7.68;4.57;;;44.10;48.20;;;;;;5013880;28;20093;-77